createdAt,value
2018-12-13T00:00:25.837Z,39.83
2018-12-13T00:02:54.334Z,37.47
2018-12-13T00:05:22.862Z,44.90
2018-12-13T00:07:51.335Z,37.83
2018-12-13T00:10:19.840Z,40.80
2018-12-13T00:12:48.302Z,39.50
2018-12-13T00:15:19.165Z,42.97
2018-12-13T00:17:47.622Z,43.50
2018-12-13T00:20:16.070Z,45.03
2018-12-13T00:22:44.636Z,41.80
2018-12-13T00:25:13.131Z,45.50
2018-12-13T00:27:43.312Z,44.87
2018-12-13T00:30:14.227Z,52.57
2018-12-13T00:32:43.435Z,48.37
2018-12-13T00:35:12.757Z,49.90
2018-12-13T00:37:41.477Z,43.20
2018-12-13T00:40:11.152Z,49.03
2018-12-13T00:42:39.632Z,53.77
2018-12-13T00:45:08.233Z,52.33
2018-12-13T00:47:36.710Z,49.73
2018-12-13T00:50:05.279Z,49.17
2018-12-13T00:52:33.796Z,48.13
2018-12-13T00:55:02.264Z,44.63
2018-12-13T00:57:30.782Z,45.03
2018-12-13T00:59:59.387Z,46.67
2018-12-13T01:02:27.852Z,46.40
2018-12-13T01:04:56.328Z,43.03
2018-12-13T01:07:24.824Z,49.17
2018-12-13T01:09:53.287Z,44.83
2018-12-13T01:12:21.777Z,45.67
2018-12-13T01:14:50.301Z,47.80
2018-12-13T01:17:18.775Z,45.43
2018-12-13T01:19:47.413Z,45.23
2018-12-13T01:22:15.917Z,46.03
2018-12-13T01:24:44.426Z,47.93
2018-12-13T01:27:12.888Z,45.13
2018-12-13T01:29:41.375Z,44.67
2018-12-13T01:32:09.836Z,48.47
2018-12-13T01:34:38.326Z,48.70
2018-12-13T01:37:06.851Z,49.97
2018-12-13T01:39:35.317Z,39.83
2018-12-13T01:42:03.782Z,42.30
2018-12-13T01:44:32.280Z,43.60
2018-12-13T01:47:00.746Z,48.10
2018-12-13T01:49:29.221Z,47.03
2018-12-13T01:51:57.748Z,55.53
2018-12-13T01:54:26.263Z,45.97
2018-12-13T01:56:54.744Z,49.73
2018-12-13T01:59:23.253Z,51.03
2018-12-13T02:01:51.705Z,45.43
2018-12-13T02:04:20.211Z,45.07
2018-12-13T02:06:48.743Z,47.63
2018-12-13T02:09:17.247Z,47.17
2018-12-13T02:11:45.719Z,51.17
2018-12-13T02:14:14.258Z,52.47
2018-12-13T02:16:43.735Z,51.53
2018-12-13T02:19:12.255Z,53.67
2018-12-13T02:21:40.742Z,59.87
2018-12-13T02:24:09.247Z,53.20
2018-12-13T02:26:37.797Z,57.77
2018-12-13T02:29:08.202Z,58.13
2018-12-13T02:31:36.795Z,60.87
2018-12-13T02:34:05.635Z,54.00
2018-12-13T02:36:34.140Z,56.27
2018-12-13T02:39:02.756Z,49.53
2018-12-13T02:41:31.287Z,55.97
2018-12-13T02:43:59.888Z,52.47
2018-12-13T02:46:28.391Z,52.63
2018-12-13T02:49:06.732Z,51.50
2018-12-13T02:51:35.328Z,56.57
2018-12-13T02:54:03.936Z,47.37
2018-12-13T02:56:32.537Z,50.60
2018-12-13T02:59:00.996Z,50.20
2018-12-13T03:01:29.487Z,57.53
2018-12-13T03:03:57.976Z,49.83
2018-12-13T03:06:26.549Z,51.90
2018-12-13T03:08:54.980Z,48.50
2018-12-13T03:11:24.342Z,47.87
2018-12-13T03:13:52.839Z,52.57
2018-12-13T03:16:21.417Z,48.40
2018-12-13T03:18:49.916Z,46.43
2018-12-13T03:21:18.402Z,48.93
2018-12-13T03:23:46.866Z,46.97
2018-12-13T03:26:15.398Z,45.03
2018-12-13T03:28:43.975Z,48.63
2018-12-13T03:31:12.466Z,48.13
2018-12-13T03:33:40.984Z,43.67
2018-12-13T03:36:09.563Z,50.97
2018-12-13T03:38:38.058Z,51.00
2018-12-13T03:41:06.731Z,49.77
2018-12-13T03:43:35.222Z,46.53
2018-12-13T03:46:03.685Z,45.23
2018-12-13T03:48:32.183Z,48.43
2018-12-13T03:51:00.716Z,44.23
2018-12-13T03:53:29.177Z,48.97
2018-12-13T03:55:57.673Z,48.83
2018-12-13T03:58:26.128Z,47.73
2018-12-13T04:00:54.650Z,45.87
2018-12-13T04:03:23.111Z,44.93
2018-12-13T04:05:51.600Z,48.93
2018-12-13T04:08:20.153Z,41.37
2018-12-13T04:10:48.660Z,45.00
2018-12-13T04:13:17.132Z,47.00
2018-12-13T04:15:45.713Z,44.23
2018-12-13T04:18:14.231Z,50.27
2018-12-13T04:20:42.841Z,45.23
2018-12-13T04:23:11.417Z,48.20
2018-12-13T04:25:39.889Z,47.30
2018-12-13T04:28:08.391Z,46.83
2018-12-13T04:30:36.864Z,51.83
2018-12-13T04:33:05.526Z,51.90
2018-12-13T04:35:33.991Z,50.50
2018-12-13T04:38:02.548Z,46.47
2018-12-13T04:40:34.012Z,50.73
2018-12-13T04:43:02.502Z,46.37
2018-12-13T04:45:34.050Z,53.50
2018-12-13T04:48:02.532Z,51.00
2018-12-13T04:50:31.068Z,50.13
2018-12-13T04:52:59.583Z,50.63
2018-12-13T04:55:28.068Z,48.37
2018-12-13T04:57:56.620Z,54.97
2018-12-13T05:00:25.284Z,47.70
2018-12-13T05:02:53.773Z,60.60
2018-12-13T05:05:22.299Z,51.20
2018-12-13T05:07:50.805Z,55.97
2018-12-13T05:10:30.540Z,49.93
2018-12-13T05:12:59.057Z,53.03
2018-12-13T05:15:34.009Z,58.53
2018-12-13T05:18:02.528Z,51.73
2018-12-13T05:20:31.008Z,61.00
2018-12-13T05:22:59.472Z,51.73
2018-12-13T05:25:28.038Z,60.33
2018-12-13T05:27:56.559Z,59.27
2018-12-13T05:30:25.064Z,57.60
2018-12-13T05:32:53.560Z,65.53
2018-12-13T05:35:22.065Z,60.90
2018-12-13T05:37:50.600Z,62.93
2018-12-13T05:40:19.071Z,64.73
2018-12-13T05:42:47.565Z,59.67
2018-12-13T05:45:16.661Z,60.07
2018-12-13T05:47:45.179Z,64.10
2018-12-13T05:50:13.803Z,55.90
2018-12-13T05:52:42.329Z,51.07
2018-12-13T05:55:10.856Z,55.77
2018-12-13T05:57:39.427Z,57.97
2018-12-13T06:00:09.638Z,59.37
2018-12-13T06:02:38.170Z,67.53
2018-12-13T06:05:07.326Z,63.13
2018-12-13T06:07:35.938Z,68.17
2018-12-13T06:10:05.304Z,58.90
2018-12-13T06:12:34.542Z,53.93
2018-12-13T06:15:03.040Z,61.37
2018-12-13T06:17:31.653Z,61.33
2018-12-13T06:20:06.994Z,58.47
2018-12-13T06:22:35.476Z,58.97
2018-12-13T06:25:04.317Z,57.73
2018-12-13T06:27:32.938Z,51.50
2018-12-13T06:30:07.262Z,61.00
2018-12-13T06:32:32.021Z,60.03
2018-12-13T06:35:00.501Z,55.93
2018-12-13T06:37:28.967Z,61.43
2018-12-13T06:39:57.489Z,55.10
2018-12-13T06:42:25.963Z,59.37
2018-12-13T06:44:54.481Z,55.17
2018-12-13T06:47:23.032Z,60.43
2018-12-13T06:49:51.508Z,62.63
2018-12-13T06:52:20.082Z,56.60
2018-12-13T06:54:48.602Z,57.70
2018-12-13T06:57:17.179Z,57.40
2018-12-13T06:59:45.722Z,58.87
2018-12-13T07:02:14.198Z,57.70
2018-12-13T07:04:42.674Z,53.97
2018-12-13T07:07:11.129Z,57.33
2018-12-13T07:09:39.600Z,52.97
2018-12-13T07:12:08.098Z,58.90
2018-12-13T07:14:36.552Z,55.50
2018-12-13T07:17:05.088Z,61.60
2018-12-13T07:19:33.612Z,58.90
2018-12-13T07:22:02.082Z,50.73
2018-12-13T07:24:30.609Z,54.87
2018-12-13T07:26:59.093Z,65.43
2018-12-13T07:29:27.568Z,58.53
2018-12-13T07:31:56.097Z,56.17
2018-12-13T07:34:24.579Z,55.43
2018-12-13T07:36:53.152Z,48.50
2018-12-13T07:39:21.693Z,54.83
2018-12-13T07:41:50.173Z,56.40
2018-12-13T07:44:18.645Z,55.63
2018-12-13T07:46:47.197Z,51.97
2018-12-13T07:49:15.677Z,53.47
2018-12-13T07:51:44.164Z,61.47
2018-12-13T07:54:12.760Z,52.47
2018-12-13T07:56:41.243Z,53.30
2018-12-13T07:59:09.732Z,54.53
2018-12-13T08:01:38.238Z,51.60
2018-12-13T08:04:06.754Z,49.33
2018-12-13T08:06:35.234Z,54.07
2018-12-13T08:09:05.441Z,53.33
2018-12-13T08:11:33.970Z,54.33
2018-12-13T08:14:02.458Z,51.23
2018-12-13T08:16:30.984Z,54.70
2018-12-13T08:18:59.592Z,56.90
2018-12-13T08:21:28.091Z,62.03
2018-12-13T08:23:56.573Z,59.00
2018-12-13T08:26:25.072Z,57.63
2018-12-13T08:28:53.561Z,57.57
2018-12-13T08:31:22.123Z,60.03
2018-12-13T08:33:50.593Z,58.33
2018-12-13T08:36:19.081Z,69.63
2018-12-13T08:38:47.585Z,62.67
2018-12-13T08:41:16.181Z,54.47
2018-12-13T08:43:44.669Z,64.20
2018-12-13T08:46:13.182Z,68.93
2018-12-13T08:48:41.625Z,61.63
2018-12-13T08:51:10.100Z,80.53
2018-12-13T08:53:38.635Z,77.00
2018-12-13T08:56:07.102Z,70.13
2018-12-13T08:58:35.568Z,72.97
2018-12-13T09:01:04.148Z,71.87
2018-12-13T09:03:32.638Z,75.60
2018-12-13T09:06:01.127Z,71.47
2018-12-13T09:08:33.597Z,76.70
2018-12-13T09:11:00.287Z,78.50
2018-12-13T09:13:28.869Z,81.67
2018-12-13T09:15:57.334Z,86.50
2018-12-13T09:18:25.801Z,84.10
2018-12-13T09:20:54.335Z,77.97
2018-12-13T09:23:22.833Z,72.63
2018-12-13T09:25:51.459Z,80.60
2018-12-13T09:28:20.090Z,78.13
2018-12-13T09:30:49.625Z,73.33
2018-12-13T09:33:18.191Z,89.33
2018-12-13T09:35:46.678Z,86.77
2018-12-13T09:38:15.158Z,79.73
2018-12-13T09:40:43.644Z,87.90
2018-12-13T09:43:12.207Z,81.57
2018-12-13T09:45:40.686Z,81.50
2018-12-13T09:48:09.193Z,84.17
2018-12-13T09:50:37.699Z,76.57
2018-12-13T09:53:06.194Z,86.03
2018-12-13T09:55:34.653Z,88.17
2018-12-13T09:58:03.354Z,80.33
2018-12-13T10:00:31.846Z,84.80
2018-12-13T10:03:00.396Z,82.23
2018-12-13T10:05:28.938Z,80.03
2018-12-13T10:07:57.390Z,83.57
2018-12-13T10:10:25.865Z,92.77
2018-12-13T10:12:54.401Z,92.17
2018-12-13T10:15:22.906Z,91.87
2018-12-13T10:17:51.382Z,97.30
2018-12-13T10:20:19.886Z,89.57
2018-12-13T10:22:48.330Z,92.53
2018-12-13T10:25:16.995Z,91.33
2018-12-13T10:27:45.514Z,87.17
2018-12-13T10:30:14.111Z,90.53
2018-12-13T10:32:42.597Z,85.90
2018-12-13T10:35:22.384Z,100.67
2018-12-13T10:37:56.460Z,85.70
2018-12-13T10:40:30.701Z,85.90
2018-12-13T10:42:59.177Z,99.73
2018-12-13T10:45:39.088Z,88.97
2018-12-13T10:48:13.138Z,78.13
2018-12-13T10:50:47.391Z,85.10
2018-12-13T10:53:15.869Z,77.47
2018-12-13T10:55:50.038Z,82.50
2018-12-13T10:58:24.044Z,88.00
2018-12-13T11:01:03.362Z,73.20
2018-12-13T11:03:37.693Z,71.10
2018-12-13T11:06:11.779Z,76.10
2018-12-13T11:08:40.243Z,71.57
2018-12-13T11:11:08.723Z,72.27
2018-12-13T11:13:37.210Z,69.70
2018-12-13T11:16:05.675Z,71.87
2018-12-13T11:18:34.181Z,86.40
2018-12-13T11:21:02.738Z,73.97
2018-12-13T11:23:36.946Z,78.03
2018-12-13T11:26:11.117Z,73.90
2018-12-13T11:28:49.789Z,71.87
2018-12-13T11:31:24.062Z,73.80
2018-12-13T11:33:52.552Z,77.43
2018-12-13T11:36:32.496Z,71.90
2018-12-13T11:39:06.689Z,70.23
2018-12-13T11:41:46.436Z,63.27
2018-12-13T11:44:20.474Z,55.43
2018-12-13T11:46:54.512Z,58.97
2018-12-13T11:49:22.977Z,56.67
2018-12-13T11:51:51.483Z,60.73
2018-12-13T11:54:30.406Z,64.12
2018-12-13T11:57:04.589Z,56.73
2018-12-13T11:59:38.718Z,71.30
2018-12-13T12:02:07.190Z,60.83
2018-12-13T12:04:35.830Z,58.47
2018-12-13T12:07:09.801Z,56.93
2018-12-13T12:09:38.289Z,54.43
2018-12-13T12:12:12.256Z,50.07
2018-12-13T12:14:46.297Z,42.03
2018-12-13T12:17:20.392Z,42.43
2018-12-13T12:19:54.503Z,45.03
2018-12-13T12:22:28.531Z,43.30
2018-12-13T12:24:57.054Z,41.13
2018-12-13T12:27:36.933Z,47.70
2018-12-13T12:30:11.583Z,50.47
2018-12-13T12:32:45.758Z,45.43
2018-12-13T12:35:25.613Z,49.87
2018-12-13T12:37:59.671Z,44.00
2018-12-13T12:40:33.629Z,42.87
2018-12-13T12:43:02.230Z,41.70
2018-12-13T12:45:36.396Z,42.37
2018-12-13T12:48:04.925Z,44.70
2018-12-13T12:50:33.454Z,44.83
2018-12-13T12:53:07.497Z,44.63
2018-12-13T12:55:41.566Z,39.73
2018-12-13T12:58:10.153Z,40.40
2018-12-13T13:00:38.681Z,48.93
2018-12-13T13:03:07.341Z,36.83
2018-12-13T13:05:36.225Z,37.00
2018-12-13T13:08:04.858Z,33.80
2018-12-13T13:10:33.372Z,35.30
2018-12-13T13:13:01.871Z,38.97
2018-12-13T13:15:30.419Z,33.97
2018-12-13T13:17:58.901Z,33.90
2018-12-13T13:20:27.479Z,35.80
2018-12-13T13:22:55.947Z,38.43
2018-12-13T13:25:24.446Z,35.53
2018-12-13T13:27:52.941Z,37.23
2018-12-13T13:30:21.457Z,34.23
2018-12-13T13:32:49.991Z,38.07
2018-12-13T13:35:18.481Z,34.27
2018-12-13T13:37:46.962Z,43.03
2018-12-13T13:40:15.450Z,34.57
2018-12-13T13:42:43.938Z,34.90
2018-12-13T13:45:12.448Z,40.83
2018-12-13T13:47:40.914Z,43.08
2018-12-13T13:50:09.416Z,39.13
2018-12-13T13:52:38.749Z,42.07
2018-12-13T13:55:07.355Z,41.37
2018-12-13T13:57:35.926Z,38.73
2018-12-13T14:00:05.691Z,40.33
2018-12-13T14:02:34.205Z,46.83
2018-12-13T14:05:02.849Z,46.30
2018-12-13T14:07:31.305Z,44.93
2018-12-13T14:09:59.768Z,37.50
2018-12-13T14:12:28.349Z,41.40
2018-12-13T14:14:56.797Z,37.63
2018-12-13T14:17:25.361Z,41.30
2018-12-13T14:19:53.853Z,35.53
2018-12-13T14:25:43.714Z,36.20
2018-12-13T14:28:12.218Z,40.97
2018-12-13T14:30:40.792Z,36.20
2018-12-13T14:33:09.334Z,37.80
2018-12-13T14:35:37.807Z,34.90
2018-12-13T14:38:06.402Z,35.53
2018-12-13T14:40:34.926Z,34.03
2018-12-13T14:43:03.546Z,37.60
2018-12-13T14:45:32.103Z,38.93
2018-12-13T14:48:00.574Z,34.53
2018-12-13T14:50:29.110Z,36.30
2018-12-13T14:52:57.760Z,34.33
2018-12-13T14:55:26.296Z,38.33
2018-12-13T14:57:54.894Z,33.87
2018-12-13T15:00:23.405Z,40.20
2018-12-13T15:02:51.941Z,37.97
2018-12-13T15:05:20.958Z,37.90
2018-12-13T15:07:49.585Z,35.47
2018-12-13T15:10:18.112Z,39.80
2018-12-13T15:12:46.635Z,35.10
2018-12-13T15:15:15.197Z,34.27
2018-12-13T15:17:44.012Z,36.10
2018-12-13T15:20:12.531Z,38.77
2018-12-13T15:22:41.169Z,37.70
2018-12-13T15:25:09.713Z,34.97
2018-12-13T15:27:38.586Z,35.27
2018-12-13T15:30:07.780Z,34.90
2018-12-13T15:32:36.397Z,35.87
2018-12-13T15:35:05.438Z,35.57
2018-12-13T15:37:33.998Z,33.73
2018-12-13T15:40:02.588Z,36.70
2018-12-13T15:42:37.849Z,31.93
2018-12-13T15:45:07.866Z,34.50
2018-12-13T15:47:36.517Z,33.93
2018-12-13T15:50:05.741Z,32.23
2018-12-13T15:52:34.410Z,33.50
2018-12-13T15:55:03.086Z,29.47
2018-12-13T15:57:31.732Z,34.07
2018-12-13T16:00:00.245Z,28.10
2018-12-13T16:02:28.839Z,30.27
2018-12-13T16:04:57.378Z,33.07
2018-12-13T16:07:25.858Z,28.37
2018-12-13T16:09:54.397Z,27.67
2018-12-13T16:12:23.149Z,30.43
2018-12-13T16:14:51.759Z,28.53
2018-12-13T16:17:20.296Z,28.83
2018-12-13T16:19:48.945Z,32.07
2018-12-13T16:22:17.482Z,31.87
2018-12-13T16:24:46.018Z,33.30
2018-12-13T16:27:14.747Z,31.67
2018-12-13T16:29:44.370Z,32.17
2018-12-13T16:32:13.008Z,33.07
2018-12-13T16:34:41.588Z,32.67
2018-12-13T16:37:10.169Z,32.20
2018-12-13T16:39:38.743Z,84.13
2018-12-13T16:42:07.351Z,34.40
2018-12-13T16:44:35.955Z,33.80
2018-12-13T16:47:04.473Z,34.43
2018-12-13T16:49:33.075Z,42.57
2018-12-13T16:52:02.686Z,40.57
2018-12-13T16:54:31.258Z,44.53
2018-12-13T16:56:59.845Z,35.70
2018-12-13T16:59:28.454Z,34.93
2018-12-13T17:01:57.018Z,34.63
2018-12-13T17:04:25.594Z,37.03
2018-12-13T17:06:56.053Z,40.63
2018-12-13T17:09:24.906Z,39.73
2018-12-13T17:11:53.614Z,45.53
2018-12-13T17:14:22.132Z,36.80
2018-12-13T17:16:51.683Z,37.73
2018-12-13T17:19:20.498Z,34.27
2018-12-13T17:21:49.614Z,40.50
2018-12-13T17:24:23.383Z,43.07
2018-12-13T17:26:55.116Z,38.30
2018-12-13T17:29:25.620Z,44.17
2018-12-13T17:31:55.574Z,45.13
2018-12-13T17:34:27.510Z,41.23
2018-12-13T17:36:56.357Z,42.63
2018-12-13T17:39:24.992Z,41.20
2018-12-13T17:41:53.630Z,42.57
2018-12-13T17:44:22.208Z,43.47
2018-12-13T17:46:50.851Z,42.10
2018-12-13T17:49:19.558Z,41.73
2018-12-13T17:51:48.052Z,45.47
2018-12-13T17:54:16.580Z,43.70
2018-12-13T17:56:45.240Z,46.33
2018-12-13T17:59:14.512Z,39.77
2018-12-13T18:01:43.266Z,37.70
2018-12-13T18:04:11.913Z,41.33
2018-12-13T18:06:40.720Z,43.10
2018-12-13T18:09:11.491Z,44.97
2018-12-13T18:11:45.848Z,45.43
2018-12-13T18:14:15.453Z,49.33
2018-12-13T18:16:53.402Z,49.93
2018-12-13T18:19:27.302Z,51.23
2018-12-13T18:21:57.202Z,52.67
2018-12-13T18:24:26.392Z,47.50
2018-12-13T18:26:55.214Z,47.77
2018-12-13T18:29:24.313Z,48.97
2018-12-13T18:31:53.229Z,52.65
2018-12-13T18:34:22.249Z,48.90
2018-12-13T18:36:50.997Z,52.97
2018-12-13T18:39:20.147Z,47.47
2018-12-13T18:41:48.911Z,47.77
2018-12-13T18:44:17.873Z,51.40
2018-12-13T18:46:49.188Z,50.17
2018-12-13T18:49:19.794Z,45.97
2018-12-13T18:51:58.377Z,54.03
2018-12-13T18:54:27.464Z,54.47
2018-12-13T18:56:58.509Z,49.90
2018-12-13T18:59:30.789Z,58.23
2018-12-13T19:02:10.340Z,57.27
2018-12-13T19:04:39.092Z,53.60
2018-12-13T19:07:12.721Z,50.23
2018-12-13T19:09:41.531Z,54.23
2018-12-13T19:12:12.048Z,53.83
2018-12-13T19:14:41.919Z,52.07
2018-12-13T19:17:10.793Z,47.30
2018-12-13T19:19:39.352Z,49.97
2018-12-13T19:22:07.878Z,54.43
2018-12-13T19:24:36.413Z,50.97
2018-12-13T19:27:05.048Z,53.73
2018-12-13T19:29:33.714Z,51.27
2018-12-13T19:32:02.225Z,52.67
2018-12-13T19:34:30.749Z,52.20
2018-12-13T19:36:59.447Z,51.37
2018-12-13T19:39:28.073Z,48.67
2018-12-13T19:41:56.638Z,57.17
2018-12-13T19:44:25.162Z,51.80
2018-12-13T19:46:53.770Z,50.23
2018-12-13T19:49:22.297Z,53.17
2018-12-13T19:51:51.186Z,56.33
2018-12-13T19:54:19.866Z,52.77
2018-12-13T19:56:48.491Z,50.17
2018-12-13T19:59:17.072Z,56.73
2018-12-13T20:01:45.624Z,58.03
2018-12-13T20:04:14.258Z,54.13
2018-12-13T20:06:42.839Z,58.43
2018-12-13T20:09:11.534Z,50.77
2018-12-13T20:11:40.111Z,54.67
2018-12-13T20:14:08.677Z,54.37
2018-12-13T20:16:37.288Z,57.20
2018-12-13T20:19:05.776Z,54.87
2018-12-13T20:21:34.399Z,53.03
2018-12-13T20:24:02.993Z,55.60
2018-12-13T20:26:31.985Z,63.20
2018-12-13T20:29:00.782Z,53.47
2018-12-13T20:31:29.465Z,50.63
2018-12-13T20:33:58.087Z,50.83
2018-12-13T20:36:26.767Z,58.70
2018-12-13T20:38:55.302Z,52.80
2018-12-13T20:41:23.857Z,54.63
2018-12-13T20:43:52.521Z,50.93
2018-12-13T20:46:21.024Z,53.60
2018-12-13T20:48:49.713Z,50.43
2018-12-13T20:51:18.361Z,52.73
2018-12-13T20:53:46.964Z,51.97
2018-12-13T20:56:15.563Z,48.33
2018-12-13T20:58:45.362Z,52.13
2018-12-13T21:01:14.037Z,52.30
2018-12-13T21:03:42.554Z,53.47
2018-12-13T21:06:11.940Z,48.37
2018-12-13T21:08:40.454Z,49.53
2018-12-13T21:11:09.034Z,46.60
2018-12-13T21:13:37.555Z,48.40
2018-12-13T21:16:06.100Z,50.57
2018-12-13T21:18:34.601Z,48.90
2018-12-13T21:21:06.087Z,46.07
2018-12-13T21:23:34.703Z,43.70
2018-12-13T21:26:03.367Z,48.87
2018-12-13T21:28:31.905Z,50.20
2018-12-13T21:31:00.433Z,43.00
2018-12-13T21:33:28.984Z,46.23
2018-12-13T21:35:57.610Z,49.03
2018-12-13T21:38:27.658Z,44.43
2018-12-13T21:40:56.442Z,45.90
2018-12-13T21:43:25.016Z,39.20
2018-12-13T21:45:53.587Z,48.10
2018-12-13T21:48:22.121Z,48.03
2018-12-13T21:50:50.651Z,45.47
2018-12-13T21:53:19.331Z,47.70
2018-12-13T21:56:01.006Z,40.50
2018-12-13T21:58:29.500Z,44.70
2018-12-13T22:00:57.991Z,47.83
2018-12-13T22:03:26.594Z,46.40
2018-12-13T22:06:01.737Z,45.57
2018-12-13T22:08:30.284Z,38.37
2018-12-13T22:10:58.787Z,43.73
2018-12-13T22:13:27.922Z,41.40
2018-12-13T22:15:56.449Z,39.93
2018-12-13T22:18:25.028Z,38.13
2018-12-13T22:20:53.536Z,37.97
2018-12-13T22:23:22.093Z,42.57
2018-12-13T22:25:50.593Z,39.20
2018-12-13T22:28:19.109Z,41.57
2018-12-13T22:30:47.743Z,46.60
2018-12-13T22:33:16.228Z,37.63
2018-12-13T22:35:45.019Z,44.93
2018-12-13T22:38:13.676Z,46.43
2018-12-13T22:40:42.213Z,39.30
2018-12-13T22:43:10.709Z,41.87
2018-12-13T22:45:45.515Z,43.63
2018-12-13T22:48:13.978Z,41.83
2018-12-13T22:50:42.446Z,53.60
2018-12-13T22:53:10.978Z,44.47
2018-12-13T22:55:39.477Z,43.23
2018-12-13T22:58:07.957Z,40.87
2018-12-13T23:00:42.298Z,40.60
2018-12-13T23:03:10.904Z,47.50
2018-12-13T23:05:39.382Z,51.20
2018-12-13T23:08:07.884Z,45.30
2018-12-13T23:10:36.408Z,48.43
2018-12-13T23:13:04.958Z,42.37
2018-12-13T23:15:33.578Z,50.03
2018-12-13T23:18:02.266Z,45.23
2018-12-13T23:20:30.777Z,50.37
2018-12-13T23:22:59.294Z,50.57
2018-12-13T23:25:27.812Z,47.43
2018-12-13T23:27:56.418Z,46.57
2018-12-13T23:30:24.938Z,45.20
2018-12-13T23:32:53.450Z,49.37
2018-12-13T23:35:21.945Z,46.57
2018-12-13T23:37:50.460Z,53.90
2018-12-13T23:40:18.946Z,51.30
2018-12-13T23:42:47.469Z,51.00
2018-12-13T23:45:16.012Z,53.97
2018-12-13T23:47:44.536Z,47.90
2018-12-13T23:50:13.155Z,52.83
2018-12-13T23:52:41.643Z,56.40
2018-12-13T23:55:10.109Z,47.47
2018-12-13T23:57:38.589Z,52.93
